Time;durP1;ratioP1;P1;durP2;ratioP2;P2;SDS_P1;SDS_P2;PMS_P1;PMS_P2;Temp;Humidity;BMP_temperature;BMP_pressure;BME280_temperature;BME280_humidity;BME280_pressure;Samples;Min_cycle;Max_cycle;Signal;HPM_P1;HPM_P2
2021/10/15 00:00:47;;;;;;;;;10.67;8.67;;;;;11.33;60.35;100870.41;5097017;27;45198;-79
2021/10/15 00:03:12;;;;;;;;;12.75;11.00;;;;;11.18;60.55;100867.63;5096363;27;46015;-79
2021/10/15 00:05:37;;;;;;;;;8.00;8.00;;;;;11.12;60.63;100875.94;5096430;27;45167;-79
2021/10/15 00:08:03;;;;;;;;;14.25;11.00;;;;;11.05;60.68;100878.06;5087936;27;45230;-79
2021/10/15 00:10:29;;;;;;;;;13.00;11.00;;;;;10.97;61.11;100879.41;5076509;28;45165;-79
2021/10/15 00:12:54;;;;;;;;;9.25;9.00;;;;;10.88;61.18;100878.09;5076319;28;45516;-79
2021/10/15 00:15:19;;;;;;;;;13.75;11.00;;;;;10.81;61.59;100879.34;5085261;27;45106;-80
2021/10/15 00:17:45;;;;;;;;;12.75;10.25;;;;;10.73;61.85;100878.88;5096751;27;45187;-79
2021/10/15 00:20:10;;;;;;;;;12.00;9.75;;;;;10.66;62.24;100878.31;5096804;27;45446;-79
2021/10/15 00:22:36;;;;;;;;;9.25;9.25;;;;;10.63;62.23;100881.13;5086329;27;46109;-79
2021/10/15 00:25:01;;;;;;;;;16.00;11.75;;;;;10.59;62.41;100879.56;5096808;27;45161;-79
2021/10/15 00:27:27;;;;;;;;;9.50;9.00;;;;;10.46;62.11;100861.56;5084111;27;45284;-79
2021/10/15 00:29:52;;;;;;;;;10.50;10.50;;;;;10.50;62.37;100865.81;5076561;28;45217;-79
2021/10/15 00:32:17;;;;;;;;;12.50;8.75;;;;;10.45;62.67;100865.16;5075870;28;45388;-79
2021/10/15 00:34:43;;;;;;;;;10.50;10.25;;;;;10.35;62.79;100856.78;5057691;28;45319;-79
2021/10/15 00:37:09;;;;;;;;;13.00;9.25;;;;;10.35;63.21;100869.22;5076233;28;45273;-79
2021/10/15 00:39:34;;;;;;;;;12.00;12.00;;;;;10.33;63.60;100868.38;5075995;28;45167;-79
2021/10/15 00:42:00;;;;;;;;;15.75;14.00;;;;;10.26;63.44;100859.00;5075992;28;45314;-79
2021/10/15 00:44:25;;;;;;;;;13.25;10.75;;;;;10.27;63.47;100863.38;5075955;28;45182;-79
2021/10/15 00:46:50;;;;;;;;;11.25;11.25;;;;;10.25;63.53;100867.94;5076141;28;45256;-79
2021/10/15 00:49:16;;;;;;;;;10.00;10.00;;;;;10.22;63.75;100865.41;5058757;28;45249;-79
2021/10/15 00:51:44;;;;;;;;;15.50;13.75;;;;;10.17;63.78;100861.16;5079963;27;45274;-79
2021/10/15 00:54:14;;;;;;;;;17.50;15.00;;;;;10.13;63.84;100862.28;5097827;27;45715;-79
2021/10/15 00:56:42;;;;;;;;;17.50;14.75;;;;;10.02;63.88;100849.50;5099752;27;45208;-79
2021/10/15 00:59:07;;;;;;;;;18.50;14.50;;;;;10.06;64.01;100859.97;5099590;27;45149;-79
2021/10/15 01:01:33;;;;;;;;;22.00;16.75;;;;;10.05;64.54;100858.25;5086300;27;45220;-79
2021/10/15 01:04:00;;;;;;;;;18.00;15.75;;;;;10.00;64.45;100843.41;5078946;28;45210;-79
2021/10/15 01:06:26;;;;;;;;;16.25;15.75;;;;;9.99;64.57;100835.47;5079645;28;45158;-79
2021/10/15 01:08:53;;;;;;;;;18.75;14.75;;;;;9.99;64.86;100840.78;5079026;28;45139;-79
2021/10/15 01:11:18;;;;;;;;;17.25;14.75;;;;;10.01;64.54;100841.59;5079070;28;45238;-79
2021/10/15 01:13:45;;;;;;;;;16.75;14.00;;;;;10.00;64.76;100840.75;5078749;28;45327;-80
2021/10/15 01:16:12;;;;;;;;;22.00;19.00;;;;;9.99;64.57;100838.13;5060929;28;45241;-79
2021/10/15 01:18:39;;;;;;;;;19.25;17.25;;;;;9.94;64.51;100835.72;5078719;28;45223;-79
2021/10/15 01:21:06;;;;;;;;;20.50;17.00;;;;;9.95;64.31;100836.59;5078557;28;45372;-79
2021/10/15 01:23:32;;;;;;;;;19.75;14.25;;;;;9.98;64.95;100841.75;5078344;28;45168;-79
2021/10/15 01:25:58;;;;;;;;;13.50;12.00;;;;;9.96;64.95;100832.97;5079228;28;45203;-79
2021/10/15 01:28:26;;;;;;;;;15.50;11.75;;;;;9.97;64.65;100842.69;5060337;28;45302;-79
2021/10/15 01:30:52;;;;;;;;;11.25;10.75;;;;;9.94;64.66;100834.88;5078858;28;46391;-79
2021/10/15 01:33:18;;;;;;;;;8.50;8.00;;;;;9.94;64.93;100832.22;5078686;28;45256;-79
2021/10/15 01:35:43;;;;;;;;;12.00;9.25;;;;;9.89;65.03;100824.47;5071547;27;45206;-79
2021/10/15 01:38:09;;;;;;;;;7.75;7.75;;;;;9.84;64.60;100827.31;5097995;27;45355;-79
2021/10/15 01:40:35;;;;;;;;;9.00;8.00;;;;;9.73;64.91;100811.03;5084186;27;46547;-79
2021/10/15 01:43:00;;;;;;;;;12.50;10.00;;;;;9.65;64.77;100805.25;5078480;28;45249;-79
2021/10/15 01:45:30;;;;;;;;;13.75;11.00;;;;;9.62;64.94;100814.22;5079263;27;45423;-78
2021/10/15 01:47:57;;;;;;;;;8.25;7.00;;;;;9.61;64.98;100811.66;5097099;27;45207;-78
2021/10/15 01:50:24;;;;;;;;;10.75;9.25;;;;;9.58;65.27;100807.34;5096265;27;46460;-78
2021/10/15 01:52:50;;;;;;;;;10.25;9.25;;;;;9.57;65.25;100804.75;5095996;27;45290;-78
2021/10/15 01:55:16;;;;;;;;;10.75;9.25;;;;;9.56;65.84;100805.69;5078570;28;45291;-78
2021/10/15 01:57:42;;;;;;;;;9.00;9.00;;;;;9.57;65.50;100799.44;5078616;28;45090;-79
2021/10/15 02:00:09;;;;;;;;;10.00;9.00;;;;;9.23;65.84;100750.59;5077828;28;46126;-79
2021/10/15 02:02:35;;;;;;;;;7.75;7.00;;;;;9.47;65.95;100791.91;5091701;27;45252;-79
2021/10/15 02:05:01;;;;;;;;;10.00;8.00;;;;;9.57;66.25;100800.28;5098658;27;45197;-79
2021/10/15 02:07:29;;;;;;;;;7.00;7.00;;;;;9.53;66.15;100788.09;5098916;27;45190;-80
2021/10/15 02:09:55;;;;;;;;;9.00;8.75;;;;;9.51;66.33;100784.66;5098692;27;46212;-78
2021/10/15 02:12:20;;;;;;;;;6.67;6.67;;;;;9.55;65.75;100796.00;5098275;27;45156;-78
2021/10/15 02:14:45;;;;;;;;;11.00;7.25;;;;;9.56;66.11;100785.28;5084875;27;45485;-78
2021/10/15 02:17:11;;;;;;;;;10.00;8.50;;;;;9.58;65.87;100795.88;5076708;28;45347;-79
2021/10/15 02:19:36;;;;;;;;;6.25;6.00;;;;;9.58;65.63;100799.38;5077509;27;45242;-78
2021/10/15 02:22:02;;;;;;;;;6.25;6.25;;;;;9.53;64.93;100792.56;5077931;28;45229;-78
2021/10/15 02:24:28;;;;;;;;;7.00;7.00;;;;;9.46;65.00;100787.53;5077935;28;45159;-77
2021/10/15 02:26:53;;;;;;;;;10.75;8.00;;;;;9.32;64.95;100776.72;5077965;28;45241;-78
2021/10/15 02:29:18;;;;;;;;;11.25;8.25;;;;;9.29;65.28;100779.50;5077680;28;45310;-78
2021/10/15 02:31:44;;;;;;;;;9.00;8.00;;;;;9.25;65.33;100785.88;5077434;28;45350;-78
2021/10/15 02:34:09;;;;;;;;;9.25;8.25;;;;;9.12;65.40;100767.88;5077913;28;45157;-79
2021/10/15 02:36:35;;;;;;;;;10.00;5.75;;;;;9.14;65.19;100775.78;5084118;27;45309;-79
2021/10/15 02:39:00;;;;;;;;;9.00;7.75;;;;;9.03;65.42;100762.97;5077346;28;45280;-79
2021/10/15 02:41:26;;;;;;;;;7.50;6.50;;;;;9.06;66.37;100772.59;5077794;27;45440;-78
2021/10/15 02:43:51;;;;;;;;;8.50;8.50;;;;;9.02;66.53;100774.53;5097678;27;45644;-78
2021/10/15 02:46:16;;;;;;;;;8.00;8.00;;;;;9.03;66.19;100780.69;5098036;27;45233;-79
2021/10/15 02:48:43;;;;;;;;;10.50;6.00;;;;;9.05;66.48;100781.47;5097667;27;45159;-78
2021/10/15 02:51:09;;;;;;;;;7.00;6.00;;;;;9.04;66.62;100774.47;5097710;27;45526;-78
2021/10/15 02:53:34;;;;;;;;;8.50;6.75;;;;;9.09;66.44;100794.56;5097548;27;45199;-78
2021/10/15 02:56:00;;;;;;;;;7.50;7.50;;;;;9.09;66.33;100794.56;5098404;27;45223;-79
2021/10/15 02:58:25;;;;;;;;;7.00;7.00;;;;;9.09;66.23;100793.66;5090213;27;46249;-79
2021/10/15 03:00:51;;;;;;;;;8.25;7.00;;;;;9.07;66.09;100788.44;5086739;27;45312;-78
2021/10/15 03:03:16;;;;;;;;;8.75;7.00;;;;;9.02;65.92;100782.50;5097350;27;45143;-78
2021/10/15 03:05:42;;;;;;;;;7.00;7.00;;;;;9.00;66.28;100781.69;5097518;27;45195;-79
2021/10/15 03:08:08;;;;;;;;;9.25;7.00;;;;;8.95;66.68;100784.56;5097636;27;46382;-78
2021/10/15 03:10:33;;;;;;;;;8.00;7.00;;;;;8.94;66.68;100787.28;5097637;27;45397;-78
2021/10/15 03:12:58;;;;;;;;;12.50;8.00;;;;;8.91;67.30;100788.28;5087984;27;45263;-78
2021/10/15 03:15:24;;;;;;;;;8.33;8.00;;;;;8.93;66.97;100789.06;5088759;27;45190;-79
2021/10/15 03:17:49;;;;;;;;;11.50;8.50;;;;;8.93;67.40;100788.19;5097531;27;45205;-78
2021/10/15 03:20:14;;;;;;;;;8.00;8.00;;;;;8.92;67.59;100790.00;5097527;27;45242;-78
2021/10/15 03:22:40;;;;;;;;;8.25;7.00;;;;;8.91;67.43;100782.13;5079606;27;45205;-78
2021/10/15 03:25:05;;;;;;;;;10.25;8.50;;;;;8.93;67.34;100780.25;5077161;28;45260;-78
2021/10/15 03:27:31;;;;;;;;;12.75;12.00;;;;;8.94;67.29;100785.47;5077370;28;46285;-77
2021/10/15 03:29:56;;;;;;;;;14.25;12.75;;;;;8.95;67.38;100775.72;5077090;28;45180;-77
2021/10/15 03:32:22;;;;;;;;;14.75;13.00;;;;;8.91;68.15;100763.56;5077376;28;45229;-78
2021/10/15 03:34:47;;;;;;;;;19.75;15.75;;;;;8.96;68.21;100767.72;5076586;27;45166;-78
2021/10/15 03:37:13;;;;;;;;;17.00;14.25;;;;;8.98;67.71;100767.66;5089659;27;46039;-78
2021/10/15 03:39:38;;;;;;;;;18.25;16.00;;;;;9.01;68.03;100769.28;5097027;27;45216;-79
2021/10/15 03:42:03;;;;;;;;;18.50;14.75;;;;;9.02;67.99;100766.59;5078263;27;45103;-79
2021/10/15 03:44:29;;;;;;;;;17.25;15.25;;;;;9.00;68.04;100762.28;5077110;28;45210;-79
2021/10/15 03:46:54;;;;;;;;;15.75;15.75;;;;;9.06;68.25;100768.13;5079988;27;46126;-79
2021/10/15 03:49:19;;;;;;;;;12.00;12.00;;;;;9.08;68.01;100776.06;5097292;27;45212;-79
2021/10/15 03:51:45;;;;;;;;;12.25;10.25;;;;;9.09;68.19;100772.44;5082751;27;46282;-79
2021/10/15 03:54:10;;;;;;;;;13.75;12.75;;;;;9.07;67.72;100761.91;5076436;28;45191;-79
2021/10/15 03:56:35;;;;;;;;;18.00;15.50;;;;;9.12;68.00;100765.22;5076964;28;45381;-79
2021/10/15 03:59:01;;;;;;;;;16.50;15.00;;;;;9.06;68.22;100752.22;5076960;28;45143;-79
2021/10/15 04:01:26;;;;;;;;;15.50;12.75;;;;;9.13;68.45;100763.44;5077369;27;45220;-78
2021/10/15 04:03:51;;;;;;;;;23.50;16.25;;;;;9.15;68.00;100769.53;5076483;28;45364;-78
2021/10/15 04:06:17;;;;;;;;;11.75;9.75;;;;;9.16;68.10;100765.94;5085504;27;45933;-79
2021/10/15 04:08:42;;;;;;;;;10.75;9.25;;;;;9.14;67.84;100765.16;5080063;27;45220;-79
2021/10/15 04:11:07;;;;;;;;;8.50;7.25;;;;;9.17;67.57;100770.31;5076661;28;45210;-78
2021/10/15 04:13:33;;;;;;;;;12.50;10.00;;;;;9.13;68.08;100766.06;5082033;27;45207;-78
2021/10/15 04:16:01;;;;;;;;;11.50;8.50;;;;;9.10;68.17;100761.75;5096777;27;46243;-79
2021/10/15 04:18:27;;;;;;;;;12.25;8.00;;;;;9.07;68.20;100759.25;5093966;27;45658;-78
2021/10/15 04:20:52;;;;;;;;;13.75;13.25;;;;;9.06;67.79;100748.72;5076557;28;45394;-78
2021/10/15 04:23:18;;;;;;;;;16.75;15.00;;;;;8.97;68.05;100732.28;5076596;28;45217;-79
2021/10/15 04:25:44;;;;;;;;;16.75;13.75;;;;;9.05;68.31;100741.69;5078979;28;46765;-78
2021/10/15 04:28:09;;;;;;;;;12.25;11.25;;;;;9.05;68.49;100739.03;5079967;28;45074;-79
2021/10/15 04:30:34;;;;;;;;;15.25;12.75;;;;;9.06;68.07;100741.63;5079983;28;45221;-79
2021/10/15 04:33:00;;;;;;;;;10.75;9.00;;;;;9.07;68.03;100735.38;5079913;28;45060;-79
2021/10/15 04:35:25;;;;;;;;;11.75;9.00;;;;;9.09;68.28;100735.31;5079769;28;45301;-79
2021/10/15 04:37:50;;;;;;;;;14.00;11.25;;;;;9.00;68.35;100714.53;5079550;28;45205;-79
2021/10/15 04:40:16;;;;;;;;;14.75;14.25;;;;;9.04;68.36;100730.22;5079457;28;45053;-79
2021/10/15 04:42:41;;;;;;;;;14.75;12.75;;;;;9.00;68.42;100723.34;5079641;28;45169;-79
2021/10/15 04:45:07;;;;;;;;;14.00;11.75;;;;;9.04;68.09;100724.94;5078847;28;45178;-79
2021/10/15 04:47:32;;;;;;;;;15.50;12.00;;;;;9.00;67.96;100717.19;5099534;27;45418;-79
2021/10/15 04:49:58;;;;;;;;;13.75;10.50;;;;;9.03;68.27;100727.66;5094432;27;45201;-79
2021/10/15 04:52:23;;;;;;;;;13.33;12.67;;;;;9.02;68.26;100728.56;5079509;27;45953;-78
2021/10/15 04:54:48;;;;;;;;;13.50;11.75;;;;;9.00;68.17;100723.34;5079231;28;45297;-78
2021/10/15 04:57:14;;;;;;;;;14.75;11.75;;;;;8.97;67.45;100726.13;5079427;28;45123;-78
2021/10/15 04:59:39;;;;;;;;;9.00;8.33;;;;;8.96;67.81;100724.41;5079493;28;45410;-79
2021/10/15 05:02:04;;;;;;;;;7.75;7.75;;;;;8.94;68.05;100724.47;5079091;28;45461;-79
2021/10/15 05:04:30;;;;;;;;;9.25;9.25;;;;;8.94;67.65;100727.13;5078890;28;46179;-79
2021/10/15 05:06:57;;;;;;;;;10.00;9.25;;;;;8.92;67.58;100730.78;5079280;28;45178;-79
2021/10/15 05:09:33;;;;;;;;;10.50;9.75;;;;;8.91;68.03;100731.75;5079041;28;45179;-78
2021/10/15 05:12:00;;;;;;;;;10.50;8.75;;;;;8.91;68.10;100727.28;5078942;28;45353;-79
2021/10/15 05:14:25;;;;;;;;;9.50;8.25;;;;;8.90;67.60;100724.72;5079032;28;46232;-79
2021/10/15 05:16:54;;;;;;;;;14.00;10.50;;;;;8.88;68.35;100730.06;5079126;28;45189;-79
2021/10/15 05:19:20;;;;;;;;;15.00;10.50;;;;;8.83;68.08;100725.91;5078955;28;45210;-78
2021/10/15 05:21:45;;;;;;;;;12.50;12.00;;;;;8.83;68.42;100725.91;5078852;28;45295;-78
2021/10/15 05:24:11;;;;;;;;;16.00;13.00;;;;;8.81;68.96;100723.34;5078808;28;45407;-79
2021/10/15 05:26:36;;;;;;;;;12.50;9.50;;;;;8.80;68.58;100726.91;5078872;28;45292;-79
2021/10/15 05:29:02;;;;;;;;;11.25;9.50;;;;;8.78;68.53;100716.38;5078980;28;45235;-78
2021/10/15 05:31:27;;;;;;;;;14.75;12.00;;;;;8.80;68.69;100721.59;5078850;28;45189;-79
2021/10/15 05:33:52;;;;;;;;;14.75;14.75;;;;;8.78;68.89;100719.03;5078648;28;46529;-78
2021/10/15 05:36:18;;;;;;;;;13.25;13.25;;;;;8.79;68.40;100715.44;5078544;28;45217;-79
2021/10/15 05:38:43;;;;;;;;;16.75;15.75;;;;;8.72;69.19;100694.56;5060194;28;45262;-79
2021/10/15 05:41:08;;;;;;;;;17.00;13.00;;;;;8.85;68.93;100716.09;5078872;28;45176;-78
2021/10/15 05:43:34;;;;;;;;;18.25;13.50;;;;;8.80;69.14;100711.00;5078382;28;46256;-78
2021/10/15 05:45:59;;;;;;;;;15.33;12.00;;;;;8.87;68.83;100723.03;5078605;28;45219;-78
2021/10/15 05:48:25;;;;;;;;;11.00;11.00;;;;;8.86;68.72;100721.31;5078488;28;45257;-79
2021/10/15 05:50:50;;;;;;;;;15.00;12.75;;;;;8.85;68.08;100724.03;5060460;28;45250;-78
2021/10/15 05:53:18;;;;;;;;;9.00;9.00;;;;;8.81;68.20;100715.38;5078233;28;45850;-77
2021/10/15 06:01:11;;;;;;;;;8.00;8.00;;;;;8.76;68.41;100717.38;5096872;27;45116;-77
2021/10/15 06:03:38;;;;;;;;;14.00;13.00;;;;;8.71;69.38;100711.44;5080889;27;45339;-76
2021/10/15 06:16:47;;;;;;;;;16.00;14.00;;;;;8.82;69.30;100732.97;5097988;27;45276;-76
2021/10/15 06:19:15;;;;;;;;;14.50;12.00;;;;;8.87;69.73;100732.81;5098367;27;45275;-76
2021/10/15 06:21:41;;;;;;;;;18.50;16.75;;;;;8.87;69.47;100724.84;5098431;27;45201;-77
2021/10/15 06:24:06;;;;;;;;;17.25;14.50;;;;;8.94;68.96;100735.09;5098340;27;45169;-77
2021/10/15 06:26:31;;;;;;;;;13.00;13.00;;;;;8.94;68.77;100728.94;5098071;27;45269;-77
2021/10/15 06:28:57;;;;;;;;;12.25;9.25;;;;;9.00;68.84;100736.59;5098458;27;45173;-77
2021/10/15 06:31:22;;;;;;;;;14.50;12.00;;;;;9.02;68.93;100732.09;5098286;27;45156;-77
2021/10/15 06:33:48;;;;;;;;;14.75;13.50;;;;;9.08;68.23;100733.63;5097550;27;46876;-77
2021/10/15 06:36:13;;;;;;;;;12.25;12.00;;;;;9.03;68.38;100731.16;5097792;27;45179;-77
2021/10/15 06:38:39;;;;;;;;;13.75;12.75;;;;;9.09;68.39;100732.66;5097718;27;45229;-77
2021/10/15 06:41:04;;;;;;;;;10.75;10.50;;;;;9.09;67.94;100725.59;5097920;27;45183;-77
2021/10/15 06:43:29;;;;;;;;;12.75;11.50;;;;;9.11;68.34;100730.81;5097814;27;45272;-81
2021/10/15 06:45:55;;;;;;;;;13.75;10.75;;;;;9.12;68.45;100735.16;5097982;27;45247;-80
2021/10/15 06:48:20;;;;;;;;;15.00;13.00;;;;;9.13;68.90;100732.44;5097127;27;45237;-80
2021/10/15 06:50:45;;;;;;;;;14.25;13.25;;;;;9.21;68.84;100728.59;5097645;27;45257;-80
2021/10/15 06:53:11;;;;;;;;;14.00;10.00;;;;;9.29;68.12;100732.59;5097441;27;45943;-80
2021/10/15 06:55:37;;;;;;;;;14.50;11.75;;;;;9.31;67.98;100722.78;5097638;27;45579;-80
2021/10/15 06:58:04;;;;;;;;;14.00;11.50;;;;;9.37;68.02;100723.41;5097785;27;45315;-81
2021/10/15 07:00:29;;;;;;;;;14.75;12.50;;;;;9.36;67.94;100729.66;5098048;27;45194;-80
2021/10/15 07:02:55;;;;;;;;;13.00;11.25;;;;;9.35;68.09;100730.56;5097767;27;45129;-85
2021/10/15 07:05:20;;;;;;;;;15.75;14.75;;;;;9.38;68.32;100726.00;5099245;27;45157;-84
2021/10/15 07:07:45;;;;;;;;;15.50;12.50;;;;;9.46;68.74;100734.47;5099178;27;45174;-85
2021/10/15 07:10:11;;;;;;;;;19.50;14.75;;;;;9.53;68.46;100740.31;5098929;27;45261;-84
2021/10/15 07:12:39;;;;;;;;;13.00;13.00;;;;;9.62;68.67;100750.50;5098477;27;45493;-84
2021/10/15 07:15:06;;;;;;;;;17.75;13.00;;;;;9.77;68.33;100750.69;5097746;27;45479;-84
2021/10/15 07:17:32;;;;;;;;;14.75;12.00;;;;;9.90;68.21;100759.78;5097727;27;45253;-83
2021/10/15 07:19:57;;;;;;;;;11.75;10.25;;;;;9.99;67.62;100759.34;5098009;27;45246;-84
2021/10/15 07:22:22;;;;;;;;;11.50;10.00;;;;;9.98;67.26;100757.59;5097638;27;45306;-84
2021/10/15 07:24:48;;;;;;;;;11.50;10.00;;;;;9.97;67.78;100760.34;5097775;27;45130;-84
2021/10/15 07:27:13;;;;;;;;;12.25;9.00;;;;;10.00;67.57;100755.75;5098309;27;45231;-83
2021/10/15 07:29:39;;;;;;;;;11.25;10.50;;;;;10.02;67.74;100753.88;5098088;27;45474;-84
2021/10/15 07:32:04;;;;;;;;;12.00;10.25;;;;;10.13;67.95;100752.44;5098472;27;46084;-85
2021/10/15 07:34:30;;;;;;;;;11.00;10.50;;;;;10.24;67.66;100751.94;5098227;27;45321;-84
2021/10/15 07:36:55;;;;;;;;;13.00;11.50;;;;;10.42;67.50;100758.09;5098062;27;45068;-84
2021/10/15 07:39:21;;;;;;;;;10.75;10.00;;;;;10.58;67.76;100753.72;5097608;27;45144;-85
2021/10/15 07:41:47;;;;;;;;;13.75;12.00;;;;;10.70;67.54;100753.09;5097321;27;45860;-86
2021/10/15 07:44:13;;;;;;;;;12.50;10.00;;;;;10.85;67.50;100751.41;5097673;27;45183;-84
2021/10/15 07:46:39;;;;;;;;;13.00;11.25;;;;;11.14;66.93;100762.28;5096894;27;45598;-83
2021/10/15 07:49:05;;;;;;;;;17.50;13.25;;;;;11.38;66.97;100773.38;5097754;27;45260;-83
2021/10/15 07:51:31;;;;;;;;;13.75;11.00;;;;;11.63;66.74;100773.81;5097230;27;45306;-83
2021/10/15 07:53:57;;;;;;;;;18.00;13.50;;;;;11.77;65.98;100779.22;5097183;27;45225;-84
2021/10/15 07:56:22;;;;;;;;;18.50;18.25;;;;;11.90;66.22;100769.59;5097143;27;45272;-84
2021/10/15 07:58:47;;;;;;;;;24.00;23.75;;;;;12.04;65.88;100778.63;5097353;27;45230;-83
2021/10/15 08:01:12;;;;;;;;;27.50;24.00;;;;;12.12;65.38;100772.88;5100774;27;46040;-84
2021/10/15 08:03:38;;;;;;;;;18.75;17.00;;;;;12.21;65.10;100781.19;5100756;27;45244;-84
2021/10/15 08:06:03;;;;;;;;;17.75;14.25;;;;;12.25;65.07;100780.03;5099957;27;45217;-85
2021/10/15 08:08:28;;;;;;;;;15.75;13.25;;;;;12.26;65.15;100783.59;5100596;27;45146;-84
2021/10/15 08:10:54;;;;;;;;;9.33;7.00;;;;;12.30;65.17;100789.56;5100628;27;45304;-84
2021/10/15 08:13:19;;;;;;;;;13.00;11.50;;;;;12.26;65.17;100768.44;5099057;27;45663;-83
2021/10/15 08:15:44;;;;;;;;;14.00;12.00;;;;;12.33;65.25;100784.94;5101152;27;45266;-84
2021/10/15 08:18:10;;;;;;;;;17.00;12.75;;;;;12.33;65.10;100784.94;5109894;27;45151;-84
2021/10/15 08:20:35;;;;;;;;;13.50;12.25;;;;;12.30;64.95;100781.56;5114231;27;45829;-84
2021/10/15 08:23:00;;;;;;;;;14.75;13.25;;;;;12.31;65.14;100784.16;5096454;27;45128;-85
2021/10/15 08:25:27;;;;;;;;;14.50;13.25;;;;;12.35;65.35;100775.03;5109784;27;45177;-85
2021/10/15 08:27:53;;;;;;;;;14.75;12.25;;;;;12.32;65.34;100777.03;5106409;27;45259;-84
2021/10/15 08:30:18;;;;;;;;;10.75;10.00;;;;;12.32;65.51;100777.03;5087158;28;45326;-84
2021/10/15 08:32:43;;;;;;;;;14.75;11.00;;;;;12.43;65.18;100782.59;5101713;27;45284;-85
2021/10/15 08:35:11;;;;;;;;;13.75;10.75;;;;;12.50;64.99;100777.72;5103374;27;44655;-85
2021/10/15 08:37:37;;;;;;;;;11.75;10.00;;;;;12.58;64.04;100781.69;5105438;27;45376;-84
2021/10/15 08:40:04;;;;;;;;;23.00;20.00;;;;;12.68;63.54;100787.28;5108431;27;45238;-84
2021/10/15 08:42:29;;;;;;;;;13.00;12.25;;;;;12.78;63.36;100790.25;5086281;27;45140;-84
2021/10/15 08:44:55;;;;;;;;;13.75;12.75;;;;;12.87;62.97;100784.38;5085198;28;45151;-83
2021/10/15 08:47:20;;;;;;;;;18.00;14.25;;;;;13.03;62.62;100788.78;5085895;28;45150;-83
2021/10/15 08:49:46;;;;;;;;;17.75;13.75;;;;;13.13;62.31;100788.09;5084763;28;46652;-83
2021/10/15 08:52:14;;;;;;;;;14.75;14.50;;;;;13.20;62.27;100782.38;5084182;28;45160;-83
2021/10/15 08:54:43;;;;;;;;;19.50;16.50;;;;;13.29;62.34;100782.63;5084434;27;45175;-83
2021/10/15 08:57:10;;;;;;;;;18.50;14.25;;;;;13.40;62.40;100786.50;5091683;27;45487;-84
2021/10/15 08:59:45;;;;;;;;;17.25;15.50;;;;;13.51;62.15;100789.34;5078877;28;46232;-83
2021/10/15 09:02:15;;;;;;;;;23.50;17.75;;;;;13.57;61.93;100788.09;5077452;28;45638;-84
2021/10/15 09:04:46;;;;;;;;;15.25;13.00;;;;;13.64;62.19;100795.59;5086572;27;45198;-85
2021/10/15 09:07:14;;;;;;;;;17.00;15.00;;;;;13.74;62.33;100792.34;5079210;28;45431;-85
2021/10/15 09:09:39;;;;;;;;;14.50;13.75;;;;;13.83;62.26;100797.09;5086178;27;46144;-85
2021/10/15 09:12:19;;;;;;;;;12.50;11.75;;;;;13.96;62.47;100797.13;5099898;27;45267;-84
2021/10/15 09:14:47;;;;;;;;;19.50;18.00;;;;;14.18;62.06;100807.28;5099793;27;45221;-83
2021/10/15 09:17:17;;;;;;;;;13.00;11.50;;;;;14.42;61.32;100809.25;5098377;27;45167;-83
2021/10/15 09:19:46;;;;;;;;;12.25;12.25;;;;;14.59;60.94;100816.13;5079620;27;45154;-84
2021/10/15 09:22:17;;;;;;;;;15.00;13.00;;;;;14.65;60.62;100816.63;5079813;27;45699;-84
2021/10/15 09:24:43;;;;;;;;;19.50;18.25;;;;;14.66;60.50;100818.34;5079540;28;45213;-84
2021/10/15 09:27:13;;;;;;;;;22.50;19.75;;;;;14.65;60.41;100821.09;5078940;28;45135;-84
2021/10/15 09:29:58;;;;;;;;;21.00;17.00;;;;;14.64;60.19;100822.09;5078606;28;46554;-84
2021/10/15 09:32:26;;;;;;;;;21.25;21.00;;;;;14.61;60.05;100817.75;5097950;27;45320;-83
2021/10/15 09:34:52;;;;;;;;;19.75;18.75;;;;;14.69;59.65;100816.41;5098994;27;45273;-83
2021/10/15 09:37:20;;;;;;;;;21.50;19.50;;;;;14.71;58.84;100814.47;5090423;27;45372;-84
2021/10/15 09:39:46;;;;;;;;;21.50;20.25;;;;;14.84;58.87;100815.34;5078581;28;46274;-83
2021/10/15 09:42:17;;;;;;;;;21.00;20.25;;;;;15.00;59.01;100823.19;5078744;28;45522;-84
2021/10/15 09:44:42;;;;;;;;;24.25;21.00;;;;;15.18;58.05;100818.38;5094584;27;45387;-85
2021/10/15 09:47:14;;;;;;;;;25.50;19.75;;;;;15.45;57.90;100812.84;5083328;27;45268;-85
2021/10/15 09:49:48;;;;;;;;;29.00;23.00;;;;;15.78;56.96;100807.84;5098736;27;45449;-86
2021/10/15 09:52:27;;;;;;;;;17.25;16.25;;;;;16.31;56.63;100796.81;5099031;27;45268;-84
2021/10/15 09:54:59;;;;;;;;;19.75;15.25;;;;;16.79;55.58;100815.50;5099063;27;45179;-85
2021/10/15 09:57:29;;;;;;;;;17.50;13.50;;;;;17.19;54.90;100809.69;5097616;27;45391;-85
2021/10/15 09:59:58;;;;;;;;;15.50;13.75;;;;;17.46;54.23;100810.28;5097515;27;46117;-85
2021/10/15 10:02:24;;;;;;;;;17.50;13.00;;;;;17.68;53.87;100812.97;5080709;27;45249;-85
2021/10/15 10:04:51;;;;;;;;;15.50;15.00;;;;;17.84;53.05;100812.59;5096510;27;45294;-84
2021/10/15 10:07:17;;;;;;;;;14.00;13.25;;;;;17.97;53.02;100814.28;5098894;27;45240;-85
2021/10/15 10:09:44;;;;;;;;;14.75;13.75;;;;;17.97;52.51;100817.84;5072430;28;46220;-85
2021/10/15 10:12:12;;;;;;;;;14.75;12.75;;;;;17.97;52.91;100816.97;5078230;28;45548;-84
2021/10/15 10:14:37;;;;;;;;;12.75;11.50;;;;;17.93;53.06;100808.31;5078385;27;45338;-84
2021/10/15 10:17:05;;;;;;;;;13.25;12.25;;;;;18.02;52.98;100814.78;5078311;28;45338;-85
2021/10/15 10:19:36;;;;;;;;;15.25;14.25;;;;;18.24;53.00;100817.38;5078725;27;46007;-83
2021/10/15 10:22:01;;;;;;;;;16.25;13.75;;;;;18.61;52.47;100822.34;5077090;28;45165;-84
2021/10/15 10:24:31;;;;;;;;;10.50;10.00;;;;;19.00;52.29;100829.00;5078178;28;45131;-84
2021/10/15 10:26:57;;;;;;;;;13.75;12.75;;;;;19.44;51.64;100829.66;5077716;28;45366;-83
2021/10/15 10:29:24;;;;;;;;;10.50;9.00;;;;;19.79;50.29;100818.41;5093731;27;45305;-84
2021/10/15 10:31:53;;;;;;;;;12.75;9.50;;;;;20.11;50.42;100827.28;5087681;27;45208;-84
2021/10/15 10:34:25;;;;;;;;;11.00;10.00;;;;;20.48;50.22;100827.44;5059817;28;45226;-84
2021/10/15 10:37:07;;;;;;;;;12.50;11.00;;;;;20.93;49.17;100822.44;5083594;27;45457;-85
2021/10/15 10:39:33;;;;;;;;;15.25;11.50;;;;;21.32;48.11;100816.88;5088867;27;46043;-84
2021/10/15 10:42:20;;;;;;;;;10.50;9.50;;;;;21.80;48.04;100821.22;5072679;27;45216;-85
2021/10/15 10:44:48;;;;;;;;;13.50;9.50;;;;;22.27;46.75;100828.31;5098545;27;45191;-85
2021/10/15 10:47:22;;;;;;;;;12.25;11.50;;;;;22.76;46.45;100825.22;5078016;27;45289;-84
2021/10/15 10:50:05;;;;;;;;;11.50;11.00;;;;;23.25;45.45;100827.44;5077570;28;45231;-84
2021/10/15 10:52:46;;;;;;;;;16.25;12.75;;;;;23.49;44.31;100825.84;5077627;28;45638;-84
2021/10/15 10:55:31;;;;;;;;;15.25;13.00;;;;;23.69;44.48;100830.00;5090862;27;45311;-85
2021/10/15 10:57:57;;;;;;;;;13.00;11.75;;;;;23.85;43.75;100825.66;5077576;28;45224;-75
2021/10/15 11:03:32;;;;;;;;;12.00;11.00;;;;;23.84;43.77;100826.66;5013194;28;45487;-74
2021/10/15 11:05:57;;;;;;;;;14.00;13.00;;;;;23.74;42.65;100824.94;5015518;28;45148;-74
2021/10/15 11:08:26;;;;;;;;;11.75;10.25;;;;;23.51;43.48;100827.38;5017373;28;45184;-75
2021/10/15 11:10:54;;;;;;;;;13.75;10.00;;;;;23.38;44.02;100825.09;5017021;28;47548;-84
2021/10/15 11:13:33;;;;;;;;;8.50;8.50;;;;;23.39;43.05;100831.41;5021746;28;45121;-83
2021/10/15 11:15:59;;;;;;;;;13.25;9.75;;;;;23.30;43.30;100818.81;5019172;28;45310;-83
2021/10/15 11:18:24;;;;;;;;;12.25;10.25;;;;;23.20;43.40;100818.91;5016933;28;45219;-85
2021/10/15 11:20:50;;;;;;;;;13.25;10.50;;;;;23.09;43.10;100811.88;5016705;28;45290;-82
2021/10/15 11:23:15;;;;;;;;;10.00;10.00;;;;;22.85;43.60;100815.28;5016071;28;45480;-82
2021/10/15 11:25:46;;;;;;;;;11.50;10.00;;;;;22.47;43.46;100799.25;5019861;28;45174;-84
2021/10/15 11:28:19;;;;;;;;;8.00;8.00;;;;;22.17;43.89;100812.16;5016708;28;45434;-80
2021/10/15 11:30:47;;;;;;;;;11.00;7.50;;;;;21.89;44.06;100809.50;5016125;28;45298;-82
2021/10/15 11:33:25;;;;;;;;;10.00;7.50;;;;;21.67;44.31;100804.53;5016466;28;45457;-82